createdAt,value
2023-03-25T00:00:05.000Z,98.25
2023-03-25T00:05:07.000Z,98.14
2023-03-25T00:10:04.000Z,98.20
2023-03-25T00:15:05.000Z,98.58
2023-03-25T00:20:06.000Z,98.73
2023-03-25T00:25:05.000Z,98.44
2023-03-25T00:30:06.000Z,98.23
2023-03-25T00:35:05.000Z,98.20
2023-03-25T00:40:04.000Z,98.01
2023-03-25T00:45:05.000Z,98.30
2023-03-25T01:15:06.000Z,98.36
2023-03-25T01:20:10.000Z,98.43
2023-03-25T01:25:05.000Z,98.45
2023-03-25T01:30:05.000Z,98.45
2023-03-25T01:35:05.000Z,98.65
2023-03-25T01:40:05.000Z,98.89
2023-03-25T01:45:06.000Z,98.95
2023-03-25T01:50:06.000Z,99.06
2023-03-25T01:54:50.000Z,99.01
2023-03-25T02:00:06.000Z,98.97
2023-03-25T02:05:05.000Z,99.00
2023-03-25T02:10:06.000Z,98.97
2023-03-25T02:15:07.000Z,99.35
2023-03-25T02:20:06.000Z,99.01
2023-03-25T02:25:05.000Z,99.19
2023-03-25T02:30:07.000Z,99.28
2023-03-25T02:35:06.000Z,99.23
2023-03-25T02:40:07.000Z,99.48
2023-03-25T02:45:06.000Z,99.42
2023-03-25T02:50:06.000Z,99.38
2023-03-25T02:54:54.000Z,99.83
2023-03-25T02:59:33.000Z,98.19
2023-03-25T03:04:54.000Z,96.39
2023-03-25T03:09:52.000Z,96.80
2023-03-25T03:15:07.000Z,96.95
2023-03-25T03:20:06.000Z,97.37
2023-03-25T03:25:08.000Z,97.93
2023-03-25T03:30:06.000Z,98.01
2023-03-25T03:35:06.000Z,97.75
2023-03-25T03:40:08.000Z,97.78
2023-03-25T03:45:06.000Z,97.58
2023-03-25T03:50:06.000Z,98.19
2023-03-25T03:55:05.000Z,97.65
2023-03-25T04:00:07.000Z,97.41
2023-03-25T04:05:05.000Z,97.73
2023-03-25T04:10:05.000Z,98.06
2023-03-25T04:15:05.000Z,98.43
2023-03-25T04:20:05.000Z,98.58
2023-03-25T04:25:05.000Z,98.67
2023-03-25T04:30:06.000Z,98.87
2023-03-25T04:35:06.000Z,99.19
2023-03-25T04:40:06.000Z,99.22
2023-03-25T04:45:06.000Z,99.33
2023-03-25T04:50:11.000Z,99.42
2023-03-25T04:55:05.000Z,99.59
2023-03-25T05:00:06.000Z,99.65
2023-03-25T05:05:06.000Z,99.59
2023-03-25T05:09:50.000Z,99.58
2023-03-25T05:15:08.000Z,99.58
2023-03-25T05:20:06.000Z,99.64
2023-03-25T05:25:06.000Z,99.75
2023-03-25T05:30:06.000Z,99.90
2023-03-25T05:35:06.000Z,100.03
2023-03-25T05:40:05.000Z,100.16
2023-03-25T05:45:10.000Z,100.24
2023-03-25T05:50:06.000Z,100.27
2023-03-25T05:55:06.000Z,100.41
2023-03-25T06:00:06.000Z,100.32
2023-03-25T06:05:06.000Z,100.23
2023-03-25T06:10:05.000Z,100.25
2023-03-25T06:15:05.000Z,100.14
2023-03-25T06:20:05.000Z,99.96
2023-03-25T06:25:05.000Z,99.76
2023-03-25T06:30:06.000Z,99.79
2023-03-25T06:35:05.000Z,99.93
2023-03-25T06:40:07.000Z,99.95
2023-03-25T06:45:08.000Z,100.12
2023-03-25T06:50:08.000Z,100.09
2023-03-25T06:55:08.000Z,100.24
2023-03-25T07:00:08.000Z,100.03
2023-03-25T07:05:05.000Z,100.15
2023-03-25T07:10:05.000Z,100.18
2023-03-25T07:15:05.000Z,100.11
2023-03-25T07:20:05.000Z,99.99
2023-03-25T07:25:05.000Z,99.96
2023-03-25T07:30:05.000Z,99.81
2023-03-25T07:35:05.000Z,99.78
2023-03-25T07:40:05.000Z,99.78
2023-03-25T07:45:05.000Z,100.04
2023-03-25T07:50:05.000Z,99.83
2023-03-25T07:55:05.000Z,99.94
2023-03-25T08:00:05.000Z,99.67
2023-03-25T08:05:05.000Z,99.25
2023-03-25T08:10:05.000Z,99.16
2023-03-25T08:15:05.000Z,99.50
2023-03-25T08:20:05.000Z,99.48
2023-03-25T08:25:05.000Z,98.48
2023-03-25T08:30:05.000Z,97.20
2023-03-25T08:35:05.000Z,97.16
2023-03-25T08:40:05.000Z,97.10
2023-03-25T08:45:05.000Z,97.61
2023-03-25T08:50:05.000Z,97.94
2023-03-25T08:55:05.000Z,97.37
2023-03-25T09:00:06.000Z,97.20
2023-03-25T09:05:05.000Z,96.26
2023-03-25T09:10:07.000Z,96.20
2023-03-25T09:15:05.000Z,96.42
2023-03-25T09:20:05.000Z,96.80
2023-03-25T09:25:05.000Z,96.68
2023-03-25T09:30:05.000Z,96.32
2023-03-25T09:35:05.000Z,96.55
2023-03-25T09:40:06.000Z,96.82
2023-03-25T09:45:05.000Z,97.03
2023-03-25T09:50:06.000Z,97.12
2023-03-25T09:55:05.000Z,96.88
2023-03-25T10:00:06.000Z,96.60
2023-03-25T10:05:05.000Z,96.60
2023-03-25T10:10:05.000Z,96.69
2023-03-25T10:15:05.000Z,96.30
2023-03-25T10:20:06.000Z,96.26
2023-03-25T10:25:05.000Z,95.95
2023-03-25T10:30:05.000Z,95.54
2023-03-25T10:35:05.000Z,94.48
2023-03-25T10:40:05.000Z,93.91
2023-03-25T10:45:05.000Z,94.55
2023-03-25T10:50:05.000Z,93.65
2023-03-25T10:55:05.000Z,92.50
2023-03-25T11:00:06.000Z,92.37
2023-03-25T11:05:05.000Z,90.51
2023-03-25T11:10:05.000Z,89.96
2023-03-25T11:15:05.000Z,88.59
2023-03-25T11:20:05.000Z,88.97
2023-03-25T11:25:06.000Z,86.46
2023-03-25T11:30:05.000Z,87.19
2023-03-25T11:35:05.000Z,85.80
2023-03-25T11:40:05.000Z,84.49
2023-03-25T11:45:05.000Z,85.08
2023-03-25T11:50:05.000Z,84.96
2023-03-25T11:55:05.000Z,84.52
2023-03-25T12:00:05.000Z,84.52
2023-03-25T12:05:06.000Z,83.40
2023-03-25T12:10:05.000Z,81.52
2023-03-25T12:15:05.000Z,79.78
2023-03-25T12:20:05.000Z,79.36
2023-03-25T12:25:05.000Z,80.74
2023-03-25T12:30:06.000Z,80.27
2023-03-25T12:35:05.000Z,79.58
2023-03-25T12:40:05.000Z,80.76
2023-03-25T12:45:05.000Z,80.82
2023-03-25T12:50:06.000Z,80.69
2023-03-25T12:55:05.000Z,80.80
2023-03-25T13:00:06.000Z,80.62
2023-03-25T13:05:05.000Z,81.53
2023-03-25T13:10:05.000Z,86.17
2023-03-25T13:15:05.000Z,90.87
2023-03-25T13:20:05.000Z,90.66
2023-03-25T13:25:05.000Z,91.05
2023-03-25T13:30:05.000Z,90.47
2023-03-25T13:35:05.000Z,88.54
2023-03-25T13:40:05.000Z,87.72
2023-03-25T13:45:05.000Z,87.23
2023-03-25T13:50:05.000Z,84.30
2023-03-25T13:55:05.000Z,82.54
2023-03-25T14:00:05.000Z,81.39
2023-03-25T14:05:05.000Z,81.48
2023-03-25T14:10:05.000Z,83.84
2023-03-25T14:15:05.000Z,83.17
2023-03-25T14:20:05.000Z,83.28
2023-03-25T14:25:05.000Z,83.46
2023-03-25T14:30:05.000Z,81.04
2023-03-25T14:35:05.000Z,83.05
2023-03-25T14:40:06.000Z,81.27
2023-03-25T14:45:05.000Z,81.01
2023-03-25T14:50:05.000Z,81.53
2023-03-25T14:55:05.000Z,81.50
2023-03-25T15:00:06.000Z,81.80
2023-03-25T15:05:05.000Z,82.79
2023-03-25T15:10:05.000Z,83.98
2023-03-25T15:15:05.000Z,83.47
2023-03-25T15:20:06.000Z,81.09
2023-03-25T15:25:06.000Z,80.75
2023-03-25T15:30:06.000Z,81.68
2023-03-25T15:35:05.000Z,82.46
2023-03-25T15:40:06.000Z,83.79
2023-03-25T15:45:05.000Z,87.20
2023-03-25T15:50:05.000Z,89.15
2023-03-25T15:55:05.000Z,91.36
2023-03-25T16:00:05.000Z,92.71
2023-03-25T16:05:06.000Z,92.71
2023-03-25T16:10:06.000Z,92.85
2023-03-25T16:15:06.000Z,92.85
2023-03-25T16:20:06.000Z,92.95
2023-03-25T16:25:06.000Z,93.24
2023-03-25T16:30:07.000Z,93.18
2023-03-25T16:35:06.000Z,93.03
2023-03-25T16:39:50.000Z,93.01
2023-03-25T16:44:50.000Z,92.43
2023-03-25T16:50:06.000Z,92.29
2023-03-25T16:55:06.000Z,91.00
2023-03-25T17:00:06.000Z,85.24
2023-03-25T17:05:06.000Z,83.55
2023-03-25T17:10:06.000Z,83.98
2023-03-25T17:15:05.000Z,83.01
2023-03-25T17:20:06.000Z,82.54
2023-03-25T17:25:06.000Z,82.97
2023-03-25T17:30:06.000Z,83.23
2023-03-25T17:35:05.000Z,83.31
2023-03-25T17:40:06.000Z,83.52
2023-03-25T17:45:06.000Z,83.08
2023-03-25T17:50:05.000Z,82.58
2023-03-25T17:55:05.000Z,81.86
2023-03-25T18:00:05.000Z,81.78
2023-03-25T18:05:06.000Z,82.13
2023-03-25T18:10:06.000Z,82.17
2023-03-25T18:15:05.000Z,82.65
2023-03-25T18:20:06.000Z,83.54
2023-03-25T18:25:06.000Z,83.95
2023-03-25T18:30:05.000Z,84.03
2023-03-25T18:35:05.000Z,83.63
2023-03-25T18:40:06.000Z,83.36
2023-03-25T18:45:05.000Z,83.31
2023-03-25T18:50:05.000Z,83.01
2023-03-25T18:55:06.000Z,82.69
2023-03-25T19:00:06.000Z,83.36
2023-03-25T19:05:05.000Z,83.94
2023-03-25T19:10:06.000Z,85.18
2023-03-25T19:15:05.000Z,85.39
2023-03-25T19:20:06.000Z,85.33
2023-03-25T19:25:05.000Z,84.91
2023-03-25T19:30:05.000Z,84.70
2023-03-25T19:35:05.000Z,84.30
2023-03-25T19:40:05.000Z,84.86
2023-03-25T19:45:05.000Z,85.66
2023-03-25T19:50:05.000Z,87.28
2023-03-25T19:55:06.000Z,88.89
2023-03-25T20:00:06.000Z,89.01
2023-03-25T20:05:05.000Z,89.98
2023-03-25T20:10:05.000Z,90.06
2023-03-25T20:15:06.000Z,90.66
2023-03-25T20:20:05.000Z,90.54
2023-03-25T20:25:06.000Z,91.57
2023-03-25T20:30:05.000Z,91.51
2023-03-25T20:35:05.000Z,91.84
2023-03-25T20:40:05.000Z,91.75
2023-03-25T20:45:06.000Z,92.07
2023-03-25T20:50:06.000Z,92.97
2023-03-25T20:55:06.000Z,92.85
2023-03-25T20:59:51.000Z,92.64
2023-03-25T21:05:05.000Z,92.79
2023-03-25T21:10:05.000Z,93.43
2023-03-25T21:15:06.000Z,93.26
2023-03-25T21:20:05.000Z,93.23
2023-03-25T21:25:06.000Z,93.32
2023-03-25T21:30:06.000Z,93.38
2023-03-25T21:35:06.000Z,92.91
2023-03-25T21:40:06.000Z,92.26
2023-03-25T21:45:06.000Z,91.79
2023-03-25T21:50:06.000Z,91.43
2023-03-25T21:55:05.000Z,91.19
2023-03-25T22:00:05.000Z,90.98
2023-03-25T22:05:06.000Z,90.80
2023-03-25T22:10:06.000Z,90.42
2023-03-25T22:15:05.000Z,90.39
2023-03-25T22:20:06.000Z,90.41
2023-03-25T22:25:05.000Z,90.34
2023-03-25T22:29:51.000Z,90.48
2023-03-25T22:35:06.000Z,90.77
2023-03-25T22:40:06.000Z,90.98
2023-03-25T22:45:06.000Z,91.10
2023-03-25T22:50:06.000Z,91.31
2023-03-25T22:55:06.000Z,91.39
2023-03-25T22:59:51.000Z,91.37
2023-03-25T23:05:06.000Z,91.96
2023-03-25T23:10:06.000Z,93.23
2023-03-25T23:15:06.000Z,94.09
2023-03-25T23:20:06.000Z,94.48
2023-03-25T23:25:07.000Z,95.36
2023-03-25T23:30:08.000Z,95.62
2023-03-25T23:35:07.000Z,95.57
2023-03-25T23:39:51.000Z,95.60
2023-03-25T23:44:51.000Z,95.51
2023-03-25T23:50:06.000Z,95.62
2023-03-25T23:55:06.000Z,95.89
